Time;durP1;ratioP1;P1;durP2;ratioP2;P2;SDS_P1;SDS_P2;PMS_P1;PMS_P2;Temp;Humidity;BMP_temperature;BMP_pressure;BME280_temperature;BME280_humidity;BME280_pressure;Samples;Min_cycle;Max_cycle;Signal;HPM_P1;HPM_P2
2023/01/18 00:01:08;;;;;;;6.30;4.53;;;;;;;;;;5057743;28;20435;-87
2023/01/18 00:03:35;;;;;;;7.13;4.33;;;;;;;;;;5067331;28;20439;-87
2023/01/18 00:06:02;;;;;;;6.67;3.97;;;;;;;;;;5063308;28;20192;-87
2023/01/18 00:08:29;;;;;;;4.43;3.60;;;;;;;;;;5067357;28;20438;-87
2023/01/18 00:11:01;;;;;;;6.57;4.47;;;;;;;;;;5064967;28;20479;-86
2023/01/18 00:13:27;;;;;;;6.37;4.17;;;;;;;;;;5073853;28;20451;-89
2023/01/18 00:15:53;;;;;;;7.33;4.43;;;;;;;;;;5069363;28;20435;-87
2023/01/18 00:18:19;;;;;;;5.43;4.50;;;;;;;;;;5069262;28;20437;-86
2023/01/18 00:20:45;;;;;;;4.50;4.00;;;;;;;;;;5058011;28;20446;-86
2023/01/18 00:23:11;;;;;;;6.63;4.77;;;;;;;;;;5058899;28;20419;-87
2023/01/18 00:25:37;;;;;;;6.63;4.27;;;;;;;;;;5060937;28;20988;-87
2023/01/18 00:28:03;;;;;;;4.40;4.00;;;;;;;;;;5062293;28;20515;-87
2023/01/18 00:30:29;;;;;;;6.60;4.40;;;;;;;;;;5065100;28;20461;-87
2023/01/18 00:32:57;;;;;;;5.23;4.17;;;;;;;;;;5070913;28;20427;-87
2023/01/18 00:35:23;;;;;;;4.57;4.00;;;;;;;;;;5072600;28;20742;-87
2023/01/18 00:37:50;;;;;;;5.37;4.40;;;;;;;;;;5073379;28;20454;-87
2023/01/18 00:40:17;;;;;;;4.87;4.37;;;;;;;;;;5057372;28;20474;-87
2023/01/18 00:45:27;;;;;;;4.67;4.07;;;;;;;;;;5058135;28;20434;-86
2023/01/18 00:47:53;;;;;;;6.60;5.17;;;;;;;;;;5073143;28;20937;-87
2023/01/18 00:50:21;;;;;;;6.03;4.47;;;;;;;;;;5072756;28;20446;-87
2023/01/18 00:52:47;;;;;;;5.40;4.33;;;;;;;;;;5074004;28;20612;-87
2023/01/18 00:55:14;;;;;;;6.20;4.87;;;;;;;;;;5072020;28;20587;-87
2023/01/18 00:57:41;;;;;;;7.90;4.93;;;;;;;;;;5070668;28;20419;-86
2023/01/18 01:00:11;;;;;;;5.00;4.50;;;;;;;;;;5072591;28;20438;-87
2023/01/18 01:02:40;;;;;;;5.63;4.73;;;;;;;;;;5065330;28;20437;-88
2023/01/18 01:07:52;;;;;;;6.13;4.77;;;;;;;;;;5063623;28;20964;-87
2023/01/18 01:10:18;;;;;;;7.13;5.30;;;;;;;;;;5055623;28;20951;-87
2023/01/18 01:26:27;;;;;;;7.43;4.97;;;;;;;;;;5065620;28;21400;-87
2023/01/18 01:31:28;;;;;;;8.33;4.90;;;;;;;;;;5042968;28;20486;-84
2023/01/18 01:33:54;;;;;;;5.17;4.50;;;;;;;;;;5048568;28;20502;-83
2023/01/18 01:36:24;;;;;;;7.57;5.10;;;;;;;;;;5051708;28;20427;-83
2023/01/18 01:38:50;;;;;;;7.33;5.27;;;;;;;;;;5048957;28;20466;-82
2023/01/18 01:41:17;;;;;;;6.87;4.47;;;;;;;;;;5043240;28;20456;-84
2023/01/18 01:43:45;;;;;;;6.70;4.90;;;;;;;;;;5049028;28;20438;-83
2023/01/18 01:46:17;;;;;;;5.17;4.50;;;;;;;;;;5050238;28;20435;-83
2023/01/18 01:48:43;;;;;;;7.43;5.10;;;;;;;;;;5051870;28;20507;-83
2023/01/18 01:51:10;;;;;;;6.10;4.90;;;;;;;;;;5041328;28;20436;-84
2023/01/18 01:53:36;;;;;;;5.93;4.40;;;;;;;;;;5042873;28;20471;-83
2023/01/18 01:56:03;;;;;;;6.80;5.00;;;;;;;;;;5046446;28;20412;-83
2023/01/18 01:58:30;;;;;;;8.50;4.93;;;;;;;;;;5047040;28;20431;-83
2023/01/18 02:00:56;;;;;;;6.00;5.13;;;;;;;;;;5045146;28;21028;-84
2023/01/18 02:03:24;;;;;;;6.47;4.77;;;;;;;;;;5051137;28;20538;-82
2023/01/18 02:05:53;;;;;;;7.50;4.60;;;;;;;;;;5050634;28;20428;-82
2023/01/18 02:08:22;;;;;;;6.87;5.37;;;;;;;;;;5052109;28;20404;-82
2023/01/18 02:10:52;;;;;;;5.10;4.60;;;;;;;;;;5047539;28;20184;-84
2023/01/18 02:13:18;;;;;;;7.23;4.80;;;;;;;;;;5049947;28;20416;-82
2023/01/18 02:16:03;;;;;;;5.40;4.43;;;;;;;;;;5050389;28;20431;-82
2023/01/18 02:18:35;;;;;;;6.57;4.97;;;;;;;;;;5039260;28;20863;-83
2023/01/18 02:21:04;;;;;;;7.03;4.90;;;;;;;;;;5030939;28;20463;-82
2023/01/18 02:24:01;;;;;;;5.53;4.70;;;;;;;;;;5038697;28;20173;-83
2023/01/18 02:26:30;;;;;;;5.83;4.77;;;;;;;;;;5044013;28;20443;-83
2023/01/18 02:29:05;;;;;;;6.53;4.77;;;;;;;;;;5043784;28;20807;-83
2023/01/18 02:31:36;;;;;;;6.13;5.13;;;;;;;;;;5049371;28;20520;-85
2023/01/18 02:34:15;;;;;;;6.10;5.20;;;;;;;;;;5051749;28;20451;-84
2023/01/18 02:36:59;;;;;;;7.53;4.97;;;;;;;;;;5053511;28;20399;-82
2023/01/18 02:39:44;;;;;;;6.27;4.03;;;;;;;;;;5051853;28;20475;-84
2023/01/18 02:47:55;;;;;;;6.37;4.90;;;;;;;;;;5052642;28;20443;-82
2023/01/18 02:50:26;;;;;;;8.17;5.27;;;;;;;;;;5050571;28;20431;-82
2023/01/18 02:52:52;;;;;;;5.27;4.63;;;;;;;;;;5052510;28;20384;-84
2023/01/18 02:55:21;;;;;;;6.30;5.07;;;;;;;;;;5050368;28;20435;-83
2023/01/18 02:57:47;;;;;;;8.17;5.53;;;;;;;;;;5051030;28;20689;-84
2023/01/18 03:00:16;;;;;;;7.40;5.17;;;;;;;;;;5049005;28;20523;-83
2023/01/18 03:02:43;;;;;;;6.23;4.97;;;;;;;;;;5041916;28;20423;-82
2023/01/18 03:05:10;;;;;;;6.50;5.37;;;;;;;;;;5052470;28;20454;-85
2023/01/18 03:07:50;;;;;;;6.10;4.83;;;;;;;;;;5051300;28;20534;-82
2023/01/18 03:10:16;;;;;;;5.97;5.37;;;;;;;;;;5065369;28;20435;-84
2023/01/18 03:12:48;;;;;;;5.00;4.33;;;;;;;;;;5051279;28;20434;-83
2023/01/18 03:15:20;;;;;;;4.93;4.43;;;;;;;;;;5050705;28;20356;-83
2023/01/18 03:17:57;;;;;;;6.83;4.97;;;;;;;;;;5051458;28;20914;-83
2023/01/18 03:20:25;;;;;;;6.77;5.13;;;;;;;;;;5062705;28;20427;-85
2023/01/18 03:25:42;;;;;;;6.50;5.03;;;;;;;;;;5056080;28;20399;-84
2023/01/18 03:33:44;;;;;;;6.47;4.53;;;;;;;;;;5056329;28;20466;-82
2023/01/18 03:36:13;;;;;;;5.70;4.87;;;;;;;;;;5052209;28;20577;-85
2023/01/18 03:38:41;;;;;;;6.80;4.73;;;;;;;;;;5055166;28;20423;-83
2023/01/18 03:41:09;;;;;;;6.07;4.87;;;;;;;;;;5053364;28;20520;-82
2023/01/18 03:43:36;;;;;;;6.90;4.40;;;;;;;;;;5053332;28;20427;-83
2023/01/18 03:46:03;;;;;;;6.97;5.43;;;;;;;;;;5055374;28;20437;-83
2023/01/18 03:48:29;;;;;;;6.70;5.40;;;;;;;;;;5068866;28;20873;-84
2023/01/18 03:51:14;;;;;;;6.50;4.60;;;;;;;;;;5054458;28;20473;-83
2023/01/18 03:53:49;;;;;;;7.37;5.10;;;;;;;;;;5053450;28;20458;-82
2023/01/18 03:56:20;;;;;;;6.83;4.83;;;;;;;;;;5060871;28;20423;-84
2023/01/18 03:58:48;;;;;;;6.73;4.63;;;;;;;;;;5068451;28;20772;-83
2023/01/18 04:01:15;;;;;;;6.17;5.20;;;;;;;;;;5051961;28;20420;-84
2023/01/18 04:03:41;;;;;;;6.53;4.90;;;;;;;;;;5052963;28;20427;-84
2023/01/18 04:06:07;;;;;;;9.20;4.80;;;;;;;;;;5046767;28;20582;-83
2023/01/18 04:08:33;;;;;;;7.27;4.97;;;;;;;;;;5047622;28;20437;-85
2023/01/18 04:10:59;;;;;;;6.27;4.73;;;;;;;;;;5052986;28;20972;-84
2023/01/18 04:13:25;;;;;;;5.93;4.70;;;;;;;;;;5053386;28;20530;-83
2023/01/18 04:15:51;;;;;;;6.73;5.17;;;;;;;;;;5048805;28;20683;-83
2023/01/18 04:18:17;;;;;;;6.93;4.50;;;;;;;;;;5051606;28;20491;-83
2023/01/18 04:20:43;;;;;;;5.20;4.53;;;;;;;;;;5052899;28;20435;-84
2023/01/18 04:23:10;;;;;;;6.77;4.97;;;;;;;;;;5054124;28;20455;-84
2023/01/18 04:25:39;;;;;;;7.73;5.03;;;;;;;;;;5053917;28;20428;-85
2023/01/18 04:28:05;;;;;;;5.47;4.50;;;;;;;;;;5052164;28;20455;-86
2023/01/18 04:30:31;;;;;;;5.87;5.00;;;;;;;;;;5068595;28;20993;-83
2023/01/18 04:32:57;;;;;;;6.43;5.20;;;;;;;;;;5053357;28;20423;-83
2023/01/18 04:35:23;;;;;;;7.03;5.80;;;;;;;;;;5053362;28;20973;-84
2023/01/18 04:37:53;;;;;;;4.87;4.37;;;;;;;;;;5069993;28;20843;-85
2023/01/18 04:40:19;;;;;;;6.33;5.23;;;;;;;;;;5052350;28;22354;-84
2023/01/18 04:42:51;;;;;;;7.13;5.33;;;;;;;;;;5055433;28;20782;-85
2023/01/18 04:45:18;;;;;;;5.60;4.73;;;;;;;;;;5052031;28;20423;-84
2023/01/18 04:47:44;;;;;;;6.23;5.07;;;;;;;;;;5071011;28;20540;-83
2023/01/18 04:50:10;;;;;;;5.33;4.67;;;;;;;;;;5068939;28;20450;-85
2023/01/18 04:52:36;;;;;;;8.30;5.33;;;;;;;;;;5054170;28;20418;-84
2023/01/18 04:55:03;;;;;;;4.83;4.30;;;;;;;;;;5052653;28;20524;-83
2023/01/18 04:57:29;;;;;;;7.20;5.50;;;;;;;;;;5052637;28;20432;-83
2023/01/18 04:59:55;;;;;;;7.37;5.47;;;;;;;;;;5051654;28;20432;-82
2023/01/18 05:02:21;;;;;;;5.70;5.10;;;;;;;;;;5048629;28;20510;-83
2023/01/18 05:04:47;;;;;;;6.90;5.20;;;;;;;;;;5052394;28;20486;-84
2023/01/18 05:07:13;;;;;;;6.53;4.93;;;;;;;;;;5053178;28;20427;-83
2023/01/18 05:09:39;;;;;;;5.97;4.93;;;;;;;;;;5051633;28;20424;-86
2023/01/18 05:12:05;;;;;;;5.77;4.87;;;;;;;;;;5051002;28;20500;-84
2023/01/18 05:14:32;;;;;;;7.20;5.17;;;;;;;;;;5051980;28;21013;-83
2023/01/18 05:16:58;;;;;;;5.83;5.27;;;;;;;;;;5052063;28;20922;-83
2023/01/18 05:19:29;;;;;;;6.10;4.77;;;;;;;;;;5050848;28;20436;-83
2023/01/18 05:21:55;;;;;;;7.53;5.30;;;;;;;;;;5052437;28;20439;-86
2023/01/18 05:24:21;;;;;;;6.47;5.03;;;;;;;;;;5065347;28;20486;-84
2023/01/18 05:26:47;;;;;;;7.07;5.10;;;;;;;;;;5047337;28;20502;-83
2023/01/18 05:29:13;;;;;;;6.87;4.97;;;;;;;;;;5046991;28;20448;-84
2023/01/18 05:31:39;;;;;;;5.83;4.87;;;;;;;;;;5042996;28;20447;-84
2023/01/18 05:34:05;;;;;;;7.07;5.53;;;;;;;;;;5066821;28;20463;-84
2023/01/18 05:36:34;;;;;;;5.37;4.87;;;;;;;;;;5052208;28;20423;-83
2023/01/18 05:39:00;;;;;;;5.87;5.27;;;;;;;;;;5051436;28;20432;-84
2023/01/18 05:41:26;;;;;;;6.07;4.83;;;;;;;;;;5051982;28;20967;-84
2023/01/18 05:43:52;;;;;;;6.77;5.10;;;;;;;;;;5049087;28;20938;-83
2023/01/18 05:46:18;;;;;;;7.47;5.93;;;;;;;;;;5049890;28;20442;-83
2023/01/18 05:48:44;;;;;;;7.27;5.37;;;;;;;;;;5050713;28;20420;-83
2023/01/18 05:51:10;;;;;;;5.40;4.77;;;;;;;;;;5051354;28;20423;-86
2023/01/18 05:53:36;;;;;;;6.80;5.07;;;;;;;;;;5052323;28;20624;-84
2023/01/18 05:56:04;;;;;;;7.67;5.17;;;;;;;;;;5051358;28;20455;-83
2023/01/18 05:58:30;;;;;;;6.90;6.07;;;;;;;;;;5051618;28;20439;-87
2023/01/18 06:00:57;;;;;;;8.13;5.20;;;;;;;;;;5051829;28;20432;-83
2023/01/18 06:03:24;;;;;;;5.60;5.00;;;;;;;;;;5050799;28;20431;-87
2023/01/18 06:05:50;;;;;;;5.57;4.97;;;;;;;;;;5051912;28;20427;-82
2023/01/18 06:08:17;;;;;;;7.20;5.87;;;;;;;;;;5051101;28;20420;-85
2023/01/18 06:10:43;;;;;;;6.40;5.10;;;;;;;;;;5052116;28;20415;-83
2023/01/18 06:13:09;;;;;;;10.13;5.30;;;;;;;;;;5045513;28;20443;-83
2023/01/18 06:15:35;;;;;;;7.50;5.87;;;;;;;;;;5069636;28;20451;-82
2023/01/18 06:18:02;;;;;;;9.80;5.53;;;;;;;;;;5052973;28;20428;-84
2023/01/18 06:20:29;;;;;;;9.30;5.10;;;;;;;;;;5051850;28;20539;-84
2023/01/18 06:22:58;;;;;;;7.70;5.37;;;;;;;;;;5052861;28;20416;-84
2023/01/18 06:25:25;;;;;;;6.63;5.93;;;;;;;;;;5050693;28;21131;-83
2023/01/18 06:27:51;;;;;;;7.03;6.30;;;;;;;;;;5065765;28;20442;-83
2023/01/18 06:30:17;;;;;;;7.13;5.83;;;;;;;;;;5040604;28;20563;-84
2023/01/18 06:32:43;;;;;;;6.70;5.37;;;;;;;;;;5060549;28;20408;-85
2023/01/18 06:35:10;;;;;;;6.23;5.50;;;;;;;;;;5051338;28;20539;-84
2023/01/18 06:37:36;;;;;;;7.77;6.43;;;;;;;;;;5039180;28;20593;-84
2023/01/18 06:40:02;;;;;;;9.20;6.23;;;;;;;;;;5053174;28;20483;-82
2023/01/18 06:42:28;;;;;;;8.17;6.37;;;;;;;;;;5047746;28;20446;-83
2023/01/18 06:44:54;;;;;;;6.33;5.50;;;;;;;;;;5049324;28;20760;-83
2023/01/18 06:47:20;;;;;;;5.43;4.83;;;;;;;;;;5046862;28;20427;-83
2023/01/18 06:49:47;;;;;;;7.77;5.43;;;;;;;;;;5053626;28;20903;-85
2023/01/18 06:52:13;;;;;;;6.47;5.37;;;;;;;;;;5053526;28;20929;-83
2023/01/18 06:54:39;;;;;;;7.73;5.73;;;;;;;;;;5047795;28;20506;-83
2023/01/18 06:57:05;;;;;;;8.37;5.87;;;;;;;;;;5053467;28;20427;-83
2023/01/18 06:59:31;;;;;;;6.90;5.20;;;;;;;;;;5054644;28;20466;-85
2023/01/18 07:01:57;;;;;;;7.13;5.90;;;;;;;;;;5055685;28;20439;-83
2023/01/18 07:04:23;;;;;;;8.27;6.43;;;;;;;;;;5055081;28;20439;-84
2023/01/18 07:06:49;;;;;;;6.97;6.27;;;;;;;;;;5057808;28;20412;-83
2023/01/18 07:09:15;;;;;;;7.97;6.37;;;;;;;;;;5056114;28;20763;-83
2023/01/18 07:11:42;;;;;;;7.40;6.10;;;;;;;;;;5043352;28;21017;-83
2023/01/18 07:14:12;;;;;;;8.83;6.10;;;;;;;;;;5034733;28;20582;-85
2023/01/18 07:16:38;;;;;;;8.93;5.77;;;;;;;;;;5050050;28;20804;-83
2023/01/18 07:19:04;;;;;;;7.70;5.83;;;;;;;;;;5047488;28;20424;-83
2023/01/18 07:21:31;;;;;;;7.20;5.53;;;;;;;;;;5054343;28;20957;-84
2023/01/18 07:23:58;;;;;;;7.20;6.37;;;;;;;;;;5054389;28;20522;-83
2023/01/18 07:26:24;;;;;;;10.40;5.80;;;;;;;;;;5053715;28;20443;-82
2023/01/18 07:28:53;;;;;;;8.27;5.80;;;;;;;;;;5051693;28;20458;-82
2023/01/18 07:31:20;;;;;;;8.40;5.87;;;;;;;;;;5055245;28;20576;-84
2023/01/18 07:33:46;;;;;;;7.40;6.10;;;;;;;;;;5055710;28;20465;-86
2023/01/18 07:36:12;;;;;;;7.77;6.17;;;;;;;;;;5055260;28;20573;-83
2023/01/18 07:38:38;;;;;;;8.63;6.27;;;;;;;;;;5054155;28;20435;-84
2023/01/18 07:41:07;;;;;;;7.20;6.13;;;;;;;;;;5053640;28;20523;-83
2023/01/18 07:43:33;;;;;;;9.03;6.47;;;;;;;;;;5054171;28;20424;-83
2023/01/18 07:46:00;;;;;;;7.77;6.30;;;;;;;;;;5055213;28;20411;-84
2023/01/18 07:48:26;;;;;;;6.43;5.77;;;;;;;;;;5055334;28;20402;-83
2023/01/18 07:50:53;;;;;;;7.50;6.50;;;;;;;;;;5046505;28;20941;-84
2023/01/18 07:53:19;;;;;;;6.73;5.43;;;;;;;;;;5071335;28;20423;-83
2023/01/18 07:55:45;;;;;;;8.53;6.50;;;;;;;;;;5055384;28;20497;-83
2023/01/18 07:58:11;;;;;;;7.90;6.30;;;;;;;;;;5056280;28;20419;-83
2023/01/18 08:00:37;;;;;;;7.30;6.27;;;;;;;;;;5057340;28;20404;-84
2023/01/18 08:03:03;;;;;;;7.07;6.10;;;;;;;;;;5055728;28;20392;-83
2023/01/18 08:05:31;;;;;;;7.30;5.60;;;;;;;;;;5054099;28;20439;-84
2023/01/18 08:07:57;;;;;;;9.83;6.10;;;;;;;;;;5052960;28;20443;-83
2023/01/18 08:10:26;;;;;;;7.37;6.00;;;;;;;;;;5053228;28;20522;-84
2023/01/18 08:12:52;;;;;;;8.57;6.50;;;;;;;;;;5054478;28;20843;-83
2023/01/18 08:15:18;;;;;;;8.30;6.10;;;;;;;;;;5053150;28;20463;-84
2023/01/18 08:17:44;;;;;;;8.77;6.60;;;;;;;;;;5054122;28;20431;-82
2023/01/18 08:20:11;;;;;;;7.73;6.60;;;;;;;;;;5055014;28;20817;-84
2023/01/18 08:22:37;;;;;;;8.00;6.33;;;;;;;;;;5052777;28;20470;-84
2023/01/18 08:25:03;;;;;;;8.30;6.30;;;;;;;;;;5053323;28;20435;-83
2023/01/18 08:27:29;;;;;;;9.00;6.80;;;;;;;;;;5055601;28;20447;-84
2023/01/18 08:29:56;;;;;;;8.13;6.90;;;;;;;;;;5056185;23;20558;-82
2023/01/18 08:32:22;;;;;;;8.90;6.63;;;;;;;;;;5034394;28;20436;-83
2023/01/18 08:34:48;;;;;;;8.83;7.57;;;;;;;;;;5025482;28;20916;-83
2023/01/18 08:37:15;;;;;;;7.70;5.80;;;;;;;;;;5029430;28;20487;-83
2023/01/18 08:39:41;;;;;;;10.53;6.97;;;;;;;;;;5033075;28;20624;-83
2023/01/18 08:42:10;;;;;;;8.13;6.10;;;;;;;;;;5032580;28;20428;-85
2023/01/18 08:44:36;;;;;;;9.73;7.27;;;;;;;;;;5034125;28;20412;-84
2023/01/18 08:47:02;;;;;;;6.97;6.27;;;;;;;;;;5034926;28;20424;-83
2023/01/18 08:49:28;;;;;;;7.47;6.67;;;;;;;;;;5034575;28;20409;-85
2023/01/18 08:51:56;;;;;;;7.93;6.57;;;;;;;;;;5033463;28;20532;-83
2023/01/18 08:54:23;;;;;;;8.20;6.60;;;;;;;;;;5033620;28;20455;-83
2023/01/18 08:56:49;;;;;;;7.77;6.33;;;;;;;;;;5044688;23;20510;-89
2023/01/18 08:59:15;;;;;;;8.03;6.87;;;;;;;;;;5060068;28;20435;-87
2023/01/18 09:01:41;;;;;;;8.00;7.03;;;;;;;;;;5070780;28;20431;-89
2023/01/18 09:04:07;;;;;;;9.73;6.40;;;;;;;;;;5065965;28;20428;-88
2023/01/18 09:06:34;;;;;;;8.93;7.43;;;;;;;;;;5058041;28;20420;-89
2023/01/18 09:09:00;;;;;;;11.97;7.67;;;;;;;;;;5059416;28;20431;-89
2023/01/18 09:11:27;;;;;;;14.43;7.23;;;;;;;;;;5066225;28;20420;-88
2023/01/18 09:13:53;;;;;;;13.37;8.37;;;;;;;;;;5044406;28;20460;-90
2023/01/18 09:16:20;;;;;;;12.63;8.17;;;;;;;;;;5051606;28;20432;-89
2023/01/18 09:18:46;;;;;;;15.60;8.10;;;;;;;;;;5070158;28;20473;-89
2023/01/18 09:21:12;;;;;;;12.37;8.93;;;;;;;;;;5055204;28;20461;-88
2023/01/18 09:23:39;;;;;;;17.87;8.63;;;;;;;;;;5054589;28;20418;-91
2023/01/18 09:26:19;;;;;;;9.87;7.50;;;;;;;;;;5034678;28;20496;-89
2023/01/18 09:28:47;;;;;;;15.73;9.03;;;;;;;;;;5034816;28;20436;-89
2023/01/18 09:31:13;;;;;;;12.83;9.67;;;;;;;;;;5033886;28;20426;-88
2023/01/18 09:33:41;;;;;;;12.97;8.50;;;;;;;;;;5052027;28;20404;-89
2023/01/18 09:36:08;;;;;;;11.80;8.37;;;;;;;;;;5041754;28;20420;-91
2023/01/18 09:38:35;;;;;;;10.00;8.07;;;;;;;;;;5030740;28;20831;-89
2023/01/18 09:41:02;;;;;;;13.20;8.67;;;;;;;;;;5033171;28;20394;-89
2023/01/18 09:43:38;;;;;;;13.97;9.57;;;;;;;;;;5034692;28;20416;-89
2023/01/18 09:46:05;;;;;;;14.33;8.43;;;;;;;;;;5050769;28;20403;-88
2023/01/18 09:48:38;;;;;;;9.57;8.67;;;;;;;;;;5051315;28;20403;-88
2023/01/18 09:51:19;;;;;;;11.67;9.10;;;;;;;;;;5053006;28;20403;-88
2023/01/18 09:54:04;;;;;;;10.43;8.90;;;;;;;;;;5048272;28;20453;-90
2023/01/18 09:56:36;;;;;;;11.23;8.70;;;;;;;;;;5033911;28;20495;-89
2023/01/18 09:59:02;;;;;;;13.43;9.30;;;;;;;;;;5033555;28;20542;-89
2023/01/18 10:01:31;;;;;;;11.50;9.67;;;;;;;;;;5034332;28;20492;-87
2023/01/18 10:03:57;;;;;;;13.07;9.97;;;;;;;;;;5031300;28;20475;-87
2023/01/18 10:06:24;;;;;;;10.93;8.97;;;;;;;;;;5047453;28;20490;-88
2023/01/18 10:08:52;;;;;;;12.07;8.73;;;;;;;;;;5052842;28;20457;-89
2023/01/18 10:11:37;;;;;;;11.80;8.57;;;;;;;;;;5053139;28;20407;-88
2023/01/18 10:14:21;;;;;;;11.73;8.73;;;;;;;;;;5052311;28;20451;-89
2023/01/18 10:16:58;;;;;;;14.50;9.70;;;;;;;;;;5047938;28;20467;-90
2023/01/18 10:19:29;;;;;;;13.90;9.90;;;;;;;;;;5050427;28;20509;-89
2023/01/18 10:21:58;;;;;;;13.23;10.03;;;;;;;;;;5050888;28;20451;-89
2023/01/18 10:24:36;;;;;;;14.43;10.23;;;;;;;;;;5050449;28;20775;-88
2023/01/18 10:27:09;;;;;;;11.60;9.97;;;;;;;;;;5024153;28;20424;-87
2023/01/18 10:29:44;;;;;;;11.53;9.63;;;;;;;;;;5033954;28;20420;-88
2023/01/18 10:32:14;;;;;;;17.03;10.50;;;;;;;;;;5036875;28;20458;-89
2023/01/18 10:34:50;;;;;;;12.07;10.37;;;;;;;;;;5035683;28;20546;-89
2023/01/18 10:37:28;;;;;;;14.73;10.23;;;;;;;;;;5040765;28;20455;-88
2023/01/18 10:40:05;;;;;;;18.87;11.03;;;;;;;;;;5053205;28;20436;-88
2023/01/18 10:42:37;;;;;;;14.53;10.63;;;;;;;;;;5043350;28;20432;-88
2023/01/18 10:45:03;;;;;;;12.53;10.07;;;;;;;;;;5040503;28;20396;-88
2023/01/18 10:47:29;;;;;;;12.27;9.80;;;;;;;;;;5052453;28;20439;-88
2023/01/18 10:49:57;;;;;;;14.73;11.00;;;;;;;;;;5046910;28;20463;-90
2023/01/18 10:52:25;;;;;;;13.23;10.73;;;;;;;;;;5034397;28;20433;-89
2023/01/18 10:55:01;;;;;;;13.47;10.83;;;;;;;;;;5038234;28;20536;-88
2023/01/18 10:57:27;;;;;;;11.30;9.63;;;;;;;;;;5043987;28;20552;-87
2023/01/18 10:59:55;;;;;;;14.57;10.47;;;;;;;;;;5053632;28;20452;-89
2023/01/18 11:02:23;;;;;;;16.43;10.67;;;;;;;;;;5039297;28;20416;-88
2023/01/18 11:05:12;;;;;;;14.50;11.43;;;;;;;;;;5043908;28;20507;-88
2023/01/18 11:07:38;;;;;;;13.77;10.33;;;;;;;;;;5022971;28;20437;-88
2023/01/18 11:10:08;;;;;;;15.77;11.53;;;;;;;;;;5033076;28;21053;-88
2023/01/18 11:12:43;;;;;;;16.07;11.17;;;;;;;;;;5046745;28;20498;-89
2023/01/18 11:15:15;;;;;;;17.73;10.63;;;;;;;;;;5052221;28;20456;-88
2023/01/18 11:17:41;;;;;;;15.43;10.83;;;;;;;;;;5034723;28;20425;-89
2023/01/18 11:20:17;;;;;;;12.47;10.87;;;;;;;;;;5047729;28;20443;-89
2023/01/18 11:23:03;;;;;;;17.27;10.93;;;;;;;;;;5038372;28;20977;-89
2023/01/18 11:25:40;;;;;;;14.20;10.50;;;;;;;;;;5034101;28;20410;-90
2023/01/18 11:28:12;;;;;;;13.17;10.50;;;;;;;;;;5018168;28;20418;-90
2023/01/18 11:30:47;;;;;;;13.33;10.73;;;;;;;;;;5053985;28;20410;-88
2023/01/18 11:33:17;;;;;;;19.20;10.77;;;;;;;;;;5028596;28;20432;-88
2023/01/18 11:35:44;;;;;;;15.47;10.47;;;;;;;;;;5035635;28;20460;-88
2023/01/18 11:38:17;;;;;;;12.93;10.40;;;;;;;;;;5037780;28;20424;-88
2023/01/18 11:40:43;;;;;;;11.40;9.97;;;;;;;;;;5038383;28;20496;-90
2023/01/18 11:43:18;;;;;;;14.90;10.03;;;;;;;;;;5050937;28;20421;-90
2023/01/18 11:45:44;;;;;;;15.10;10.87;;;;;;;;;;5045974;28;20441;-90
2023/01/18 11:48:10;;;;;;;14.03;10.83;;;;;;;;;;5028373;28;20432;-90
2023/01/18 11:50:46;;;;;;;14.37;10.57;;;;;;;;;;5039844;28;20507;-91
2023/01/18 11:53:25;;;;;;;14.00;10.30;;;;;;;;;;5042885;28;20795;-90
2023/01/18 11:58:27;;;;;;;12.13;10.20;;;;;;;;;;5051436;28;20502;-82
2023/01/18 12:00:56;;;;;;;11.67;9.60;;;;;;;;;;5037326;28;20510;-83
2023/01/18 12:03:34;;;;;;;12.37;10.63;;;;;;;;;;5038554;28;20427;-82
2023/01/18 12:06:07;;;;;;;15.10;9.73;;;;;;;;;;5055800;28;20794;-84
2023/01/18 12:08:40;;;;;;;11.57;9.47;;;;;;;;;;5033784;28;20445;-84
2023/01/18 12:11:13;;;;;;;13.43;9.87;;;;;;;;;;5032109;28;20432;-83
2023/01/18 12:13:46;;;;;;;12.50;10.13;;;;;;;;;;5020649;28;20503;-82
2023/01/18 12:16:16;;;;;;;14.50;10.30;;;;;;;;;;5055399;28;20388;-84
2023/01/18 12:19:00;;;;;;;11.77;9.10;;;;;;;;;;5053554;28;20431;-84
2023/01/18 12:21:36;;;;;;;13.10;10.03;;;;;;;;;;5026774;28;20439;-83
2023/01/18 12:24:11;;;;;;;10.70;9.33;;;;;;;;;;5037312;28;20442;-84
2023/01/18 12:26:58;;;;;;;11.73;10.03;;;;;;;;;;5036789;28;21022;-84
2023/01/18 12:29:24;;;;;;;12.03;9.00;;;;;;;;;;5021072;28;20545;-84
2023/01/18 12:31:50;;;;;;;11.43;8.73;;;;;;;;;;5033403;28;20440;-83
2023/01/18 12:34:19;;;;;;;13.17;9.33;;;;;;;;;;5033547;28;20308;-83
2023/01/18 12:36:51;;;;;;;12.73;9.73;;;;;;;;;;5031987;28;20244;-82
2023/01/18 12:44:33;;;;;;;11.17;9.43;;;;;;;;;;5042212;28;20506;-81
2023/01/18 12:46:59;;;;;;;10.43;8.73;;;;;;;;;;5031947;28;20438;-84
2023/01/18 12:49:25;;;;;;;10.53;8.60;;;;;;;;;;5036356;28;20882;-83
2023/01/18 12:51:54;;;;;;;10.80;9.37;;;;;;;;;;5035751;28;20579;-84
2023/01/18 12:54:33;;;;;;;13.97;9.27;;;;;;;;;;5035169;28;20474;-83
2023/01/18 12:57:00;;;;;;;11.97;9.53;;;;;;;;;;5035956;28;20534;-83
2023/01/18 12:59:29;;;;;;;12.00;8.37;;;;;;;;;;5026371;28;20437;-84
2023/01/18 13:01:59;;;;;;;12.57;8.90;;;;;;;;;;5030846;28;20435;-84
2023/01/18 13:04:32;;;;;;;12.23;9.20;;;;;;;;;;5046018;28;20412;-83
2023/01/18 13:07:06;;;;;;;10.47;8.77;;;;;;;;;;5048348;28;20431;-83
2023/01/18 13:09:34;;;;;;;9.40;8.40;;;;;;;;;;5029429;28;20445;-83
2023/01/18 13:12:02;;;;;;;10.17;8.87;;;;;;;;;;5053645;28;20457;-83
2023/01/18 13:14:45;;;;;;;13.30;8.87;;;;;;;;;;5026896;28;20460;-85
2023/01/18 13:17:15;;;;;;;9.23;7.90;;;;;;;;;;5035691;28;20608;-83
2023/01/18 13:20:03;;;;;;;9.07;8.13;;;;;;;;;;5036132;28;20457;-83
2023/01/18 13:22:36;;;;;;;9.57;7.83;;;;;;;;;;5051313;28;20431;-83
2023/01/18 13:25:21;;;;;;;14.97;9.07;;;;;;;;;;5035467;28;20439;-84
2023/01/18 13:28:05;;;;;;;9.90;8.33;;;;;;;;;;5030115;28;20435;-83
2023/01/18 13:30:32;;;;;;;11.13;7.70;;;;;;;;;;5034654;28;20692;-82
2023/01/18 13:32:59;;;;;;;9.93;8.37;;;;;;;;;;5035305;28;20619;-84
2023/01/18 13:35:32;;;;;;;9.47;7.47;;;;;;;;;;5054469;28;20550;-86
2023/01/18 13:38:00;;;;;;;9.47;7.80;;;;;;;;;;5033664;28;20435;-84
2023/01/18 13:40:26;;;;;;;9.37;7.57;;;;;;;;;;5034537;28;20209;-82
2023/01/18 13:43:10;;;;;;;8.50;7.40;;;;;;;;;;5037669;28;20708;-84
2023/01/18 13:45:56;;;;;;;8.20;7.40;;;;;;;;;;5033078;28;20473;-84
2023/01/18 13:48:35;;;;;;;12.30;7.93;;;;;;;;;;4998358;28;20240;-83
2023/01/18 13:51:01;;;;;;;10.80;7.93;;;;;;;;;;5021997;28;20178;-82
2023/01/18 13:53:28;;;;;;;8.47;7.33;;;;;;;;;;5015154;28;20269;-83
2023/01/18 13:55:54;;;;;;;8.33;6.97;;;;;;;;;;5023321;28;20194;-83
2023/01/18 13:58:28;;;;;;;7.90;7.10;;;;;;;;;;5015739;28;20182;-84
2023/01/18 14:00:57;;;;;;;11.60;6.90;;;;;;;;;;5014432;28;20170;-83
2023/01/18 14:03:34;;;;;;;9.40;6.57;;;;;;;;;;5020093;28;20212;-84
2023/01/18 14:06:07;;;;;;;8.63;6.73;;;;;;;;;;4927578;28;20181;-86
2023/01/18 14:08:34;;;;;;;7.43;6.10;;;;;;;;;;5033678;28;20245;-84
2023/01/18 14:16:23;;;;;;;7.50;6.70;;;;;;;;;;5017377;28;20243;-87
2023/01/18 14:18:54;;;;;;;7.97;6.23;;;;;;;;;;5025441;28;20182;-86
2023/01/18 14:21:25;;;;;;;6.83;5.73;;;;;;;;;;5044500;28;20668;-86
2023/01/18 14:23:55;;;;;;;7.80;6.23;;;;;;;;;;5023973;28;20197;-86
2023/01/18 14:26:21;;;;;;;7.17;5.63;;;;;;;;;;5013287;28;20186;-86
2023/01/18 14:28:49;;;;;;;5.43;4.60;;;;;;;;;;5013869;28;20166;-85
2023/01/18 14:31:19;;;;;;;13.70;7.00;;;;;;;;;;5013044;28;20170;-85
2023/01/18 14:33:46;;;;;;;7.07;5.73;;;;;;;;;;5027423;28;20441;-86
2023/01/18 14:36:20;;;;;;;6.43;5.47;;;;;;;;;;5026814;28;20231;-86
2023/01/18 14:38:46;;;;;;;7.63;5.73;;;;;;;;;;5014425;28;20179;-87
2023/01/18 14:41:15;;;;;;;7.93;5.27;;;;;;;;;;5028166;28;20205;-87
2023/01/18 14:43:43;;;;;;;5.47;4.93;;;;;;;;;;5029749;28;20630;-83
2023/01/18 14:46:17;;;;;;;5.50;4.87;;;;;;;;;;5029512;28;20222;-86
2023/01/18 14:48:51;;;;;;;7.37;5.13;;;;;;;;;;5014989;28;20637;-87
2023/01/18 14:51:25;;;;;;;9.10;5.23;;;;;;;;;;5016530;28;20178;-88
2023/01/18 14:54:03;;;;;;;6.37;4.97;;;;;;;;;;5011709;28;20207;-90
2023/01/18 14:56:33;;;;;;;9.13;5.53;;;;;;;;;;5025825;28;20653;-86
2023/01/18 14:59:17;;;;;;;17.13;6.23;;;;;;;;;;5015031;28;20175;-86
2023/01/18 15:01:49;;;;;;;8.13;5.77;;;;;;;;;;5012560;28;20641;-86
2023/01/18 15:04:20;;;;;;;10.67;6.40;;;;;;;;;;5026831;28;20262;-86
2023/01/18 15:06:48;;;;;;;18.47;5.63;;;;;;;;;;5012634;28;20186;-85
2023/01/18 15:09:14;;;;;;;11.60;5.70;;;;;;;;;;5003723;28;20197;-87
2023/01/18 15:11:42;;;;;;;7.10;5.30;;;;;;;;;;5018174;28;20662;-85
2023/01/18 15:14:11;;;;;;;12.33;5.67;;;;;;;;;;5003541;28;20213;-82
2023/01/18 15:16:38;;;;;;;8.10;5.50;;;;;;;;;;5069010;28;20216;-84
2023/01/18 15:19:04;;;;;;;7.53;5.43;;;;;;;;;;5055354;28;20181;-85
2023/01/18 15:21:33;;;;;;;8.40;4.80;;;;;;;;;;5055081;28;20599;-86
2023/01/18 15:24:05;;;;;;;8.77;5.60;;;;;;;;;;5046821;28;20191;-86
2023/01/18 15:26:36;;;;;;;6.83;5.50;;;;;;;;;;5056120;28;20188;-82
2023/01/18 15:29:08;;;;;;;9.83;5.70;;;;;;;;;;5059827;28;20188;-83
2023/01/18 15:31:34;;;;;;;9.20;5.07;;;;;;;;;;5057661;28;20197;-83
2023/01/18 15:34:00;;;;;;;7.23;5.67;;;;;;;;;;5051599;28;20710;-85
2023/01/18 15:36:26;;;;;;;7.17;5.57;;;;;;;;;;5055512;28;20668;-84
2023/01/18 15:38:52;;;;;;;5.23;4.67;;;;;;;;;;5054271;28;20189;-83